Time;durP1;ratioP1;P1;durP2;ratioP2;P2;SDS_P1;SDS_P2;PMS_P1;PMS_P2;Temp;Humidity;BMP_temperature;BMP_pressure;BME280_temperature;BME280_humidity;BME280_pressure;Samples;Min_cycle;Max_cycle;Signal;HPM_P1;HPM_P2
2022/09/03 00:00:06;;;;;;;4.30;1.00;;;17.20;88.20;;;;;;5098431;28;20050;-80
2022/09/03 00:02:44;;;;;;;3.55;1.00;;;17.20;88.40;;;;;;5102578;28;20067;-80
2022/09/03 00:05:22;;;;;;;3.25;1.00;;;17.20;88.70;;;;;;5107887;28;20456;-78
2022/09/03 00:07:55;;;;;;;2.15;0.90;;;17.10;88.80;;;;;;5101799;28;20039;-80
2022/09/03 00:10:49;;;;;;;1.27;0.80;;;17.10;89.10;;;;;;5109869;28;20070;-81
2022/09/03 00:13:43;;;;;;;3.85;1.10;;;17.00;89.10;;;;;;5106024;28;20047;-80
2022/09/03 00:16:12;;;;;;;2.22;0.85;;;16.90;89.50;;;;;;5103762;28;20054;-79
2022/09/03 00:18:49;;;;;;;1.73;0.70;;;16.90;89.40;;;;;;5110292;28;20114;-80
2022/09/03 00:21:23;;;;;;;2.90;0.80;;;16.80;89.60;;;;;;5108464;28;20035;-79
2022/09/03 00:23:50;;;;;;;3.15;1.02;;;16.90;89.70;;;;;;5099951;28;20378;-80
2022/09/03 00:26:24;;;;;;;3.60;0.88;;;16.80;89.80;;;;;;5104884;28;20551;-81
2022/09/03 00:28:58;;;;;;;2.40;0.90;;;16.80;90.00;;;;;;5098591;28;20062;-80
2022/09/03 00:31:31;;;;;;;1.90;0.88;;;16.70;90.00;;;;;;5096059;28;20043;-79
2022/09/03 00:34:15;;;;;;;2.78;1.13;;;16.70;90.00;;;;;;5107078;28;20386;-80
2022/09/03 00:36:42;;;;;;;;;;;16.70;90.00;;;;;;5106732;28;20039;-80
2022/09/03 00:39:16;;;;;;;1.92;1.00;;;16.60;90.00;;;;;;5103752;28;20412;-79
2022/09/03 00:42:17;;;;;;;3.40;0.93;;;16.50;90.00;;;;;;5080605;28;20035;-80
2022/09/03 00:45:23;;;;;;;2.65;0.90;;;16.60;90.00;;;;;;5105692;28;20039;-79
2022/09/03 00:48:06;;;;;;;1.10;0.80;;;16.60;90.10;;;;;;5075339;28;20156;-79
2022/09/03 00:50:46;;;;;;;3.80;0.82;;;16.50;90.10;;;;;;5090908;28;20035;-80
2022/09/03 00:53:50;;;;;;;1.60;0.77;;;16.50;90.20;;;;;;5104827;28;20457;-80
2022/09/03 00:56:33;;;;;;;2.40;0.90;;;16.50;90.30;;;;;;5090013;28;20514;-80
2022/09/03 00:59:20;;;;;;;2.97;0.93;;;16.40;90.30;;;;;;5100464;28;20039;-79
2022/09/03 01:02:02;;;;;;;2.20;0.90;;;16.30;90.40;;;;;;5105415;28;20039;-79
2022/09/03 01:04:46;;;;;;;1.73;0.98;;;16.30;90.50;;;;;;5110387;28;20039;-79
2022/09/03 01:07:26;;;;;;;2.83;0.80;;;16.30;90.50;;;;;;5110043;28;20447;-79
2022/09/03 01:10:19;;;;;;;4.05;1.00;;;16.30;90.60;;;;;;5098262;28;20521;-80
2022/09/03 01:13:06;;;;;;;3.75;0.90;;;16.20;90.70;;;;;;5091524;28;20062;-79
2022/09/03 01:15:32;;;;;;;3.33;0.80;;;16.10;90.70;;;;;;5108990;28;20093;-79
2022/09/03 01:18:04;;;;;;;1.85;0.88;;;16.10;90.70;;;;;;5107464;28;20501;-81
2022/09/03 01:20:38;;;;;;;2.03;0.95;;;16.10;90.80;;;;;;5108933;28;20459;-79
2022/09/03 01:23:28;;;;;;;2.90;1.20;;;16.00;90.80;;;;;;5101926;28;20039;-80
2022/09/03 01:26:38;;;;;;;3.58;0.90;;;16.00;90.90;;;;;;5101060;28;20098;-79
2022/09/03 01:29:17;;;;;;;3.00;0.85;;;16.00;91.00;;;;;;5097724;28;20043;-81
2022/09/03 01:32:10;;;;;;;2.45;0.93;;;15.90;91.10;;;;;;5082869;28;20923;-80
2022/09/03 01:35:07;;;;;;;3.80;0.82;;;15.90;91.20;;;;;;5076144;28;20605;-78
2022/09/03 01:37:53;;;;;;;2.47;0.90;;;15.80;91.10;;;;;;5106238;28;20067;-80
2022/09/03 01:40:37;;;;;;;2.90;1.15;;;15.80;91.20;;;;;;5105816;28;20051;-80
2022/09/03 01:43:31;;;;;;;1.63;0.90;;;15.70;91.30;;;;;;5108141;28;20042;-80
2022/09/03 01:46:16;;;;;;;2.45;1.10;;;15.70;91.50;;;;;;5092087;28;20056;-80
2022/09/03 01:49:03;;;;;;;1.83;0.90;;;15.70;91.50;;;;;;5106279;28;20046;-77
2022/09/03 01:51:31;;;;;;;2.70;1.00;;;15.60;91.60;;;;;;5097344;28;20435;-78
2022/09/03 01:54:19;;;;;;;2.97;1.00;;;15.60;91.60;;;;;;5096501;28;20120;-80
2022/09/03 01:57:23;;;;;;;3.10;0.93;;;15.50;91.80;;;;;;5094652;28;20036;-80
2022/09/03 01:59:58;;;;;;;3.17;1.00;;;15.50;92.10;;;;;;5088714;28;20035;-81
2022/09/03 02:02:26;;;;;;;2.42;0.85;;;15.40;91.80;;;;;;5109271;28;20039;-79
2022/09/03 02:05:08;;;;;;;2.45;1.00;;;15.40;91.90;;;;;;5091234;28;20028;-80
2022/09/03 02:07:40;;;;;;;2.30;0.90;;;15.40;92.10;;;;;;5093980;28;20122;-80
2022/09/03 02:10:11;;;;;;;1.77;0.95;;;15.30;92.10;;;;;;5110114;28;20031;-79
2022/09/03 02:12:41;;;;;;;2.22;1.10;;;15.30;92.20;;;;;;5107981;28;20040;-79
2022/09/03 02:15:13;;;;;;;3.92;1.25;;;15.20;92.20;;;;;;5113223;28;20046;-79
2022/09/03 02:17:42;;;;;;;3.72;0.90;;;15.20;92.30;;;;;;5096098;28;20107;-80
2022/09/03 02:20:14;;;;;;;2.40;0.98;;;15.20;92.30;;;;;;5107888;28;20090;-79
2022/09/03 02:22:41;;;;;;;2.60;1.15;;;15.20;92.40;;;;;;5114917;28;20059;-80
2022/09/03 02:25:09;;;;;;;2.80;1.02;;;15.10;92.40;;;;;;5094513;28;20048;-80
2022/09/03 02:27:37;;;;;;;1.75;1.00;;;15.10;92.50;;;;;;5094897;28;20036;-80
2022/09/03 02:30:04;;;;;;;7.10;1.30;;;15.10;92.60;;;;;;5077518;28;20044;-80
2022/09/03 02:32:30;;;;;;;2.28;1.02;;;15.00;92.60;;;;;;5104333;28;20047;-79
2022/09/03 02:34:56;;;;;;;1.65;0.98;;;15.00;92.70;;;;;;5114182;28;20355;-78
2022/09/03 02:37:22;;;;;;;3.00;1.02;;;14.90;92.70;;;;;;5114167;28;20043;-81
2022/09/03 02:39:48;;;;;;;2.97;1.20;;;14.90;92.80;;;;;;5113710;28;20104;-79
2022/09/03 02:42:15;;;;;;;3.72;1.35;;;14.90;92.90;;;;;;5114648;28;20071;-81
2022/09/03 02:44:56;;;;;;;2.85;1.02;;;14.90;92.90;;;;;;5114344;28;20088;-80
2022/09/03 02:47:23;;;;;;;2.72;1.15;;;14.90;93.00;;;;;;5114709;28;20081;-79
2022/09/03 02:49:49;;;;;;;3.03;1.33;;;14.80;93.00;;;;;;5114492;28;20071;-80
2022/09/03 02:52:14;;;;;;;3.30;1.10;;;14.80;93.10;;;;;;5114916;28;20048;-79
2022/09/03 02:54:40;;;;;;;3.05;1.23;;;14.70;93.10;;;;;;5114155;28;20036;-80
2022/09/03 02:57:08;;;;;;;3.33;1.30;;;14.70;93.10;;;;;;5109308;28;20655;-80
2022/09/03 02:59:34;;;;;;;1.92;1.10;;;14.70;93.20;;;;;;5077468;28;20080;-80
2022/09/03 03:02:00;;;;;;;2.78;1.35;;;14.60;93.20;;;;;;5093606;28;20032;-79
2022/09/03 03:04:26;;;;;;;1.88;1.00;;;14.60;93.30;;;;;;5093940;28;20458;-80
2022/09/03 03:06:51;;;;;;;2.75;1.25;;;14.60;93.40;;;;;;5093877;28;20575;-79
2022/09/03 03:09:17;;;;;;;2.55;1.30;;;14.70;93.40;;;;;;5094138;28;20151;-81
2022/09/03 03:11:43;;;;;;;3.67;1.35;;;14.60;93.40;;;;;;5100250;28;20038;-79
2022/09/03 03:14:09;;;;;;;5.15;1.30;;;14.70;93.50;;;;;;5108663;28;20563;-79
2022/09/03 03:16:34;;;;;;;2.63;1.00;;;14.60;93.50;;;;;;5108592;28;20066;-78
2022/09/03 03:19:00;;;;;;;3.10;1.30;;;14.70;93.50;;;;;;5112441;28;20096;-80
2022/09/03 03:21:26;;;;;;;2.05;1.20;;;14.70;93.60;;;;;;5088744;28;20039;-79
2022/09/03 03:23:51;;;;;;;2.13;1.00;;;14.70;93.60;;;;;;5109669;28;20042;-79
2022/09/03 03:26:18;;;;;;;3.05;1.10;;;14.70;93.60;;;;;;5105423;28;20529;-79
2022/09/03 03:28:47;;;;;;;3.47;1.27;;;14.70;93.70;;;;;;5109467;28;20031;-78
2022/09/03 03:31:16;;;;;;;5.55;1.42;;;14.80;93.80;;;;;;5113514;28;20047;-81
2022/09/03 03:33:42;;;;;;;2.85;1.33;;;14.80;93.80;;;;;;5113740;28;20055;-81
2022/09/03 03:36:11;;;;;;;3.45;1.17;;;14.80;93.80;;;;;;5102384;28;20089;-80
2022/09/03 03:38:37;;;;;;;3.53;1.33;;;14.80;93.90;;;;;;5108655;28;20413;-82
2022/09/03 03:41:11;;;;;;;3.08;1.20;;;14.90;93.90;;;;;;5107358;28;20055;-79
2022/09/03 03:43:37;;;;;;;;;;;14.90;94.00;;;;;;5110099;28;20044;-81
2022/09/03 03:46:02;;;;;;;3.58;1.25;;;14.90;94.00;;;;;;5107414;28;19920;-79
2022/09/03 03:48:28;;;;;;;2.45;1.13;;;14.90;93.90;;;;;;5111623;28;20035;-79
2022/09/03 03:50:53;;;;;;;2.60;1.15;;;14.90;93.90;;;;;;5103034;28;20060;-78
2022/09/03 03:53:19;;;;;;;2.55;1.30;;;14.90;94.00;;;;;;5109766;28;20039;-80
2022/09/03 03:55:59;;;;;;;2.95;1.13;;;14.90;94.00;;;;;;5113020;28;20038;-80
2022/09/03 03:58:25;;;;;;;2.60;1.42;;;14.90;94.10;;;;;;5086485;28;20047;-79
2022/09/03 04:00:51;;;;;;;2.00;1.20;;;14.90;94.10;;;;;;5099655;28;20038;-81
2022/09/03 04:03:17;;;;;;;2.50;1.30;;;14.90;94.10;;;;;;5106896;28;20071;-81
2022/09/03 04:05:53;;;;;;;2.30;1.27;;;14.90;94.20;;;;;;5106124;28;20046;-80
2022/09/03 04:08:19;;;;;;;2.95;1.27;;;14.90;94.20;;;;;;5106458;28;20130;-78
2022/09/03 04:10:45;;;;;;;2.85;1.20;;;14.90;94.30;;;;;;5105547;28;20135;-81
2022/09/03 04:13:10;;;;;;;2.50;1.67;;;14.90;94.30;;;;;;5102193;28;20146;-79
2022/09/03 04:15:36;;;;;;;3.38;1.30;;;14.90;94.30;;;;;;5105200;28;20093;-79
2022/09/03 04:18:01;;;;;;;3.85;1.65;;;14.90;94.30;;;;;;5093635;28;20063;-83
2022/09/03 04:20:27;;;;;;;4.15;1.52;;;14.90;94.40;;;;;;5102780;28;20047;-79
2022/09/03 04:22:52;;;;;;;2.72;1.50;;;14.90;94.40;;;;;;5112931;28;20043;-80
2022/09/03 04:25:18;;;;;;;7.22;1.60;;;14.90;94.40;;;;;;5112461;28;20405;-81
2022/09/03 04:27:43;;;;;;;3.83;1.50;;;15.00;94.50;;;;;;5112579;28;20031;-82
2022/09/03 04:30:09;;;;;;;3.50;1.40;;;15.00;94.50;;;;;;5082670;28;20123;-79
2022/09/03 04:32:53;;;;;;;5.90;1.88;;;14.90;94.50;;;;;;5092198;28;20084;-79
2022/09/03 04:35:20;;;;;;;4.00;1.30;;;14.80;94.50;;;;;;5092264;28;20062;-80
2022/09/03 04:37:46;;;;;;;3.95;1.50;;;14.80;94.60;;;;;;5091737;28;20032;-80
2022/09/03 04:40:12;;;;;;;4.85;1.42;;;14.80;94.60;;;;;;5102037;28;20043;-80
2022/09/03 04:42:37;;;;;;;3.72;1.63;;;14.80;94.70;;;;;;5107959;28;20038;-78
2022/09/03 04:45:04;;;;;;;3.58;1.50;;;14.70;94.70;;;;;;5107427;28;20044;-78
2022/09/03 04:47:29;;;;;;;4.75;1.45;;;14.80;95.00;;;;;;5091910;28;20039;-80
2022/09/03 04:49:55;;;;;;;2.38;1.20;;;14.70;94.80;;;;;;5089225;28;20066;-79
2022/09/03 04:52:21;;;;;;;4.28;2.00;;;14.70;94.80;;;;;;5089111;28;20038;-81
2022/09/03 04:54:46;;;;;;;9.10;1.92;;;14.60;94.80;;;;;;5108330;28;20036;-78
2022/09/03 04:57:12;;;;;;;4.68;1.67;;;14.60;94.90;;;;;;5106460;28;20059;-79
2022/09/03 04:59:39;;;;;;;4.32;1.80;;;14.60;95.00;;;;;;5093274;28;20051;-80
2022/09/03 05:02:05;;;;;;;3.17;1.70;;;14.50;95.00;;;;;;5104166;28;20048;-80
2022/09/03 05:04:31;;;;;;;5.30;1.50;;;14.50;95.10;;;;;;5086367;28;20123;-79
2022/09/03 05:06:56;;;;;;;3.50;1.40;;;14.50;95.20;;;;;;5102810;28;20042;-79
2022/09/03 05:09:22;;;;;;;5.80;1.67;;;14.50;95.20;;;;;;5111803;28;20040;-79
2022/09/03 05:11:47;;;;;;;3.30;1.65;;;14.50;95.20;;;;;;5092908;28;20031;-78
2022/09/03 05:14:13;;;;;;;4.03;1.45;;;14.50;95.60;;;;;;5111533;28;20405;-79
2022/09/03 05:16:38;;;;;;;2.97;1.60;;;14.50;95.40;;;;;;5106799;28;20039;-79
2022/09/03 05:19:07;;;;;;;3.83;1.70;;;14.50;95.40;;;;;;5106141;28;20035;-80
2022/09/03 05:21:34;;;;;;;3.13;1.75;;;14.50;95.50;;;;;;5105361;28;20040;-78
2022/09/03 05:24:01;;;;;;;4.40;1.85;;;14.50;95.60;;;;;;5107709;28;20425;-80
2022/09/03 05:26:29;;;;;;;6.57;1.77;;;14.60;95.60;;;;;;5105970;28;20116;-80
2022/09/03 05:29:01;;;;;;;5.22;1.70;;;14.60;95.60;;;;;;5105494;28;20031;-77
2022/09/03 05:31:30;;;;;;;4.65;1.90;;;14.70;95.70;;;;;;5106982;28;20081;-79
2022/09/03 05:33:58;;;;;;;4.70;1.77;;;14.70;95.60;;;;;;5102369;28;20031;-78
2022/09/03 05:36:26;;;;;;;3.50;1.60;;;14.80;95.70;;;;;;5108949;28;20505;-81
2022/09/03 05:38:56;;;;;;;4.15;1.85;;;14.90;95.70;;;;;;5111435;28;20046;-80
2022/09/03 05:41:22;;;;;;;4.05;1.58;;;14.90;95.60;;;;;;5092115;28;20046;-79
2022/09/03 05:43:57;;;;;;;2.53;1.65;;;15.00;95.60;;;;;;5098617;28;20042;-79
2022/09/03 05:46:32;;;;;;;3.97;1.52;;;15.00;95.60;;;;;;5107317;28;20416;-78
2022/09/03 05:49:00;;;;;;;2.88;1.52;;;15.10;95.60;;;;;;5106358;28;20043;-79
2022/09/03 05:51:25;;;;;;;2.20;1.75;;;15.20;95.60;;;;;;5108033;28;20118;-81
2022/09/03 05:53:52;;;;;;;3.15;1.90;;;15.20;95.60;;;;;;5104760;28;20562;-78
2022/09/03 05:56:20;;;;;;;3.45;1.80;;;15.20;95.60;;;;;;5105927;28;20035;-80
2022/09/03 05:58:48;;;;;;;2.10;1.65;;;15.30;95.60;;;;;;5110357;28;20419;-79
2022/09/03 06:01:18;;;;;;;3.33;1.98;;;15.30;95.60;;;;;;5091307;28;20067;-81
2022/09/03 06:03:45;;;;;;;3.10;1.75;;;15.30;95.60;;;;;;5107498;28;20133;-79
2022/09/03 06:06:15;;;;;;;4.40;1.73;;;15.30;95.60;;;;;;5111221;28;20043;-80
2022/09/03 06:08:41;;;;;;;4.07;2.00;;;15.30;95.60;;;;;;5112187;28;20046;-80
2022/09/03 06:11:08;;;;;;;2.67;1.63;;;15.40;95.70;;;;;;5099922;28;20648;-82
2022/09/03 06:13:34;;;;;;;3.38;1.73;;;15.40;95.70;;;;;;5090990;28;20040;-78
2022/09/03 06:16:02;;;;;;;4.53;2.15;;;15.40;95.70;;;;;;5091715;28;20047;-80
2022/09/03 06:18:29;;;;;;;3.25;1.80;;;15.50;95.70;;;;;;5101788;28;20039;-80
2022/09/03 06:21:01;;;;;;;5.45;1.90;;;15.50;95.70;;;;;;5107009;28;20557;-78
2022/09/03 06:23:29;;;;;;;2.42;1.80;;;15.50;95.70;;;;;;5111057;28;20039;-79
2022/09/03 06:26:01;;;;;;;2.15;1.63;;;15.60;95.70;;;;;;5111297;28;20080;-80
2022/09/03 06:28:27;;;;;;;3.95;1.90;;;15.60;95.60;;;;;;5109035;28;20063;-80
2022/09/03 06:30:56;;;;;;;3.25;2.08;;;15.70;95.60;;;;;;5103013;28;20067;-78
2022/09/03 06:33:23;;;;;;;4.47;2.35;;;15.80;95.60;;;;;;5097635;28;20505;-78
2022/09/03 06:35:56;;;;;;;4.68;2.03;;;15.80;95.50;;;;;;5103840;28;20036;-80
2022/09/03 06:38:23;;;;;;;6.38;2.15;;;15.90;95.50;;;;;;5095030;28;20458;-81
2022/09/03 06:40:56;;;;;;;2.38;1.80;;;15.90;95.40;;;;;;5099697;28;20036;-79
2022/09/03 06:43:23;;;;;;;6.10;2.00;;;16.00;95.40;;;;;;5090454;28;20528;-80
2022/09/03 06:45:59;;;;;;;3.72;1.90;;;16.10;95.40;;;;;;5088372;28;20074;-81
2022/09/03 06:48:26;;;;;;;3.58;2.00;;;16.10;95.30;;;;;;5107945;28;20066;-78
2022/09/03 06:51:13;;;;;;;3.88;1.88;;;16.20;95.20;;;;;;5103747;28;20054;-79
2022/09/03 06:53:41;;;;;;;4.65;2.00;;;16.30;95.30;;;;;;5104357;28;20052;-80
2022/09/03 06:56:10;;;;;;;5.80;1.80;;;16.40;95.10;;;;;;5111609;28;20036;-80
2022/09/03 06:58:42;;;;;;;5.25;2.00;;;16.50;95.10;;;;;;5111847;28;20036;-80
2022/09/03 07:01:10;;;;;;;2.35;1.52;;;16.60;95.00;;;;;;5085060;28;20036;-80
2022/09/03 07:03:36;;;;;;;2.78;1.73;;;16.70;95.00;;;;;;5097568;28;20032;-81
2022/09/03 07:06:04;;;;;;;5.78;1.88;;;16.80;95.20;;;;;;5099829;28;20441;-79
2022/09/03 07:08:31;;;;;;;5.75;1.77;;;16.90;94.70;;;;;;5093503;28;20125;-80
2022/09/03 07:11:07;;;;;;;3.53;1.70;;;17.00;94.70;;;;;;5109695;28;20040;-81
2022/09/03 07:13:43;;;;;;;5.50;1.88;;;17.20;94.60;;;;;;5101075;28;20032;-77
2022/09/03 07:16:12;;;;;;;5.25;1.60;;;17.30;94.60;;;;;;5109298;28;20048;-78
2022/09/03 07:18:39;;;;;;;3.70;2.00;;;17.40;94.50;;;;;;5113495;28;20092;-79
2022/09/03 07:21:07;;;;;;;3.13;1.70;;;17.40;94.40;;;;;;5112243;28;20045;-82
2022/09/03 07:23:33;;;;;;;5.82;1.88;;;17.60;94.40;;;;;;5085306;28;20137;-80
2022/09/03 07:26:04;;;;;;;3.92;1.50;;;17.80;94.30;;;;;;5091151;28;20479;-81
2022/09/03 07:28:33;;;;;;;3.80;1.50;;;17.90;94.20;;;;;;5098348;28;20101;-78
2022/09/03 07:31:24;;;;;;;3.45;1.52;;;18.00;94.00;;;;;;5113767;28;20045;-82
2022/09/03 07:33:57;;;;;;;2.20;1.50;;;18.20;93.90;;;;;;5094237;28;20036;-80
2022/09/03 07:36:25;;;;;;;4.57;1.47;;;18.30;93.80;;;;;;5112021;28;20472;-81
2022/09/03 07:38:53;;;;;;;2.78;1.45;;;18.40;93.70;;;;;;5097093;28;20270;-77
2022/09/03 07:41:20;;;;;;;5.05;1.40;;;18.50;93.50;;;;;;5097061;28;20393;-80
2022/09/03 07:43:46;;;;;;;2.58;1.20;;;18.60;93.40;;;;;;5085940;28;20027;-79
2022/09/03 07:46:13;;;;;;;1.98;1.20;;;18.70;93.10;;;;;;5108692;28;20455;-82
2022/09/03 07:48:42;;;;;;;2.47;1.20;;;18.70;92.90;;;;;;5107751;28;20173;-79
2022/09/03 07:51:08;;;;;;;4.05;1.25;;;18.80;92.80;;;;;;5110240;28;20035;-82
2022/09/03 07:53:35;;;;;;;3.78;1.30;;;18.90;92.70;;;;;;5111564;28;20038;-83
2022/09/03 07:56:06;;;;;;;3.45;1.50;;;19.00;92.70;;;;;;5108489;28;20087;-77
2022/09/03 07:58:33;;;;;;;5.07;1.30;;;19.10;92.70;;;;;;5101976;28;20093;-80
2022/09/03 08:01:02;;;;;;;2.33;1.40;;;19.10;92.50;;;;;;5093127;28;20436;-79
2022/09/03 08:03:28;;;;;;;5.05;1.60;;;19.30;92.50;;;;;;5110860;28;20043;-80
2022/09/03 08:05:58;;;;;;;5.22;1.60;;;19.40;92.40;;;;;;5096686;28;20138;-81
2022/09/03 08:08:24;;;;;;;9.77;1.55;;;19.50;92.20;;;;;;5093140;28;20032;-82
2022/09/03 08:10:49;;;;;;;5.95;1.30;;;19.50;92.00;;;;;;5084136;28;20109;-79
2022/09/03 08:13:15;;;;;;;3.00;1.45;;;19.60;91.90;;;;;;5112841;28;20061;-79
2022/09/03 08:15:41;;;;;;;3.85;1.58;;;19.70;91.90;;;;;;5110632;28;20568;-80
2022/09/03 08:18:07;;;;;;;4.60;1.50;;;19.80;92.10;;;;;;5113264;28;20047;-78
2022/09/03 08:20:33;;;;;;;2.80;1.40;;;19.90;92.00;;;;;;5096013;28;20040;-82
2022/09/03 08:23:02;;;;;;;4.40;1.17;;;19.90;91.60;;;;;;5102305;28;20544;-80
2022/09/03 08:25:28;;;;;;;5.05;1.73;;;19.90;91.60;;;;;;5094707;28;20036;-78
2022/09/03 08:27:56;;;;;;;3.42;1.27;;;20.00;91.50;;;;;;5105129;28;20054;-80
2022/09/03 08:30:23;;;;;;;2.03;1.35;;;20.00;91.40;;;;;;5091926;28;20066;-83
2022/09/03 08:32:49;;;;;;;3.28;1.33;;;20.10;91.50;;;;;;5106540;28;20057;-80
2022/09/03 08:35:15;;;;;;;5.57;1.48;;;20.20;91.50;;;;;;5102668;28;20035;-78
2022/09/03 08:37:40;;;;;;;3.92;1.58;;;20.20;91.40;;;;;;5096883;28;20031;-81
2022/09/03 08:40:07;;;;;;;3.70;1.45;;;20.30;91.40;;;;;;5093270;28;20047;-77
2022/09/03 08:42:45;;;;;;;4.72;1.52;;;20.30;91.60;;;;;;5108268;28;20054;-83
2022/09/03 08:45:15;;;;;;;3.03;1.55;;;20.40;91.40;;;;;;5107694;28;20082;-80
2022/09/03 08:47:47;;;;;;;4.50;1.55;;;20.50;91.30;;;;;;5099781;27;20412;-83
2022/09/03 08:50:29;;;;;;;3.63;1.42;;;20.50;91.10;;;;;;5097646;28;20118;-78
2022/09/03 08:53:16;;;;;;;2.58;1.48;;;20.50;91.20;;;;;;5083894;28;20101;-79
2022/09/03 08:55:50;;;;;;;5.43;1.58;;;20.60;91.20;;;;;;5099019;28;20094;-80
2022/09/03 08:58:21;;;;;;;3.08;1.40;;;20.70;91.10;;;;;;5095514;28;20059;-81
2022/09/03 09:01:23;;;;;;;3.63;1.50;;;20.70;91.00;;;;;;5086084;28;20071;-78
2022/09/03 09:04:04;;;;;;;4.57;1.33;;;20.70;91.10;;;;;;5075344;28;20044;-80
2022/09/03 09:07:06;;;;;;;8.50;1.85;;;20.70;91.10;;;;;;5092524;28;20414;-80
2022/09/03 09:10:11;;;;;;;3.80;1.42;;;20.70;91.00;;;;;;5102012;27;20074;-81
2022/09/03 09:12:49;;;;;;;1.92;1.30;;;20.80;91.00;;;;;;5094274;28;20062;-83
2022/09/03 09:15:43;;;;;;;3.67;1.38;;;20.80;91.00;;;;;;5074539;28;20044;-79
2022/09/03 09:18:16;;;;;;;7.82;1.73;;;20.80;90.90;;;;;;5113343;27;20044;-81
2022/09/03 09:20:47;;;;;;;3.00;1.23;;;20.90;91.00;;;;;;5096552;28;20047;-82
2022/09/03 09:23:39;;;;;;;4.05;1.42;;;20.90;91.00;;;;;;5100140;28;20537;-78
2022/09/03 09:26:12;;;;;;;6.30;1.30;;;21.00;91.00;;;;;;5106394;28;20039;-79
2022/09/03 09:28:38;;;;;;;4.77;1.53;;;21.00;90.80;;;;;;5076838;28;20087;-79
2022/09/03 09:31:07;;;;;;;2.55;1.48;;;21.10;90.90;;;;;;5109242;28;20067;-78
2022/09/03 09:33:33;;;;;;;5.40;1.60;;;21.10;90.90;;;;;;5095145;28;20646;-80
2022/09/03 09:36:02;;;;;;;3.63;1.50;;;21.20;90.90;;;;;;5073917;28;20062;-80
2022/09/03 09:38:31;;;;;;;2.92;1.42;;;21.30;90.80;;;;;;5104553;28;20392;-78
2022/09/03 09:41:28;;;;;;;3.03;1.27;;;21.30;90.80;;;;;;5098039;28;20044;-79
2022/09/03 09:44:02;;;;;;;2.10;1.25;;;21.50;90.80;;;;;;5111350;27;20031;-80
2022/09/03 09:46:35;;;;;;;3.38;1.33;;;21.50;90.60;;;;;;5096840;28;20509;-79
2022/09/03 09:49:02;;;;;;;5.60;1.63;;;21.50;90.50;;;;;;5106704;28;20547;-79
2022/09/03 09:51:30;;;;;;;3.72;1.35;;;21.60;90.50;;;;;;5090932;28;20104;-81
2022/09/03 09:54:18;;;;;;;7.18;1.38;;;21.70;90.30;;;;;;5100100;28;20028;-82
2022/09/03 09:56:45;;;;;;;2.75;1.20;;;21.80;90.10;;;;;;5083004;28;20032;-81
2022/09/03 09:59:13;;;;;;;3.67;1.30;;;21.90;90.00;;;;;;5091607;28;20058;-82
2022/09/03 10:01:41;;;;;;;4.47;1.60;;;21.90;89.70;;;;;;5091445;28;20443;-81
2022/09/03 10:04:30;;;;;;;3.30;1.17;;;22.00;89.60;;;;;;5089660;28;20040;-80
2022/09/03 10:07:03;;;;;;;3.08;1.20;;;22.00;89.60;;;;;;5091070;28;20115;-79
2022/09/03 10:09:31;;;;;;;3.28;1.30;;;22.20;90.10;;;;;;5091166;28;20040;-79
2022/09/03 10:12:09;;;;;;;2.95;1.30;;;22.30;89.50;;;;;;5075591;28;20043;-81
2022/09/03 10:14:46;;;;;;;4.32;1.10;;;22.40;88.80;;;;;;5075123;28;20088;-83
2022/09/03 10:17:39;;;;;;;5.70;1.30;;;22.50;88.40;;;;;;5093761;28;20130;-75
2022/09/03 10:20:31;;;;;;;4.63;1.27;;;22.50;88.80;;;;;;5076290;28;20108;-78
2022/09/03 10:23:14;;;;;;;2.80;1.13;;;22.70;88.20;;;;;;5094686;28;20043;-81
2022/09/03 10:25:54;;;;;;;3.60;1.17;;;22.80;88.30;;;;;;5094430;28;20040;-78
2022/09/03 10:28:29;;;;;;;2.35;1.30;;;23.00;88.80;;;;;;5094426;28;20578;-78
2022/09/03 10:31:02;;;;;;;4.88;1.27;;;23.10;87.90;;;;;;5094457;28;20032;-79
2022/09/03 10:33:41;;;;;;;5.70;1.10;;;23.20;87.40;;;;;;5078195;28;20498;-81
2022/09/03 10:36:30;;;;;;;7.95;1.63;;;23.30;86.20;;;;;;5094673;28;20040;-77
2022/09/03 10:39:23;;;;;;;2.83;1.00;;;23.30;85.90;;;;;;5094872;28;20044;-80
2022/09/03 10:42:01;;;;;;;2.55;1.15;;;23.40;85.60;;;;;;5095679;28;20157;-79
2022/09/03 10:44:47;;;;;;;6.43;1.00;;;23.50;85.40;;;;;;5101066;27;20043;-82
2022/09/03 10:47:39;;;;;;;3.08;0.90;;;23.70;85.10;;;;;;5094455;28;20048;-82
2022/09/03 10:50:17;;;;;;;6.65;1.30;;;23.90;84.90;;;;;;5106498;28;20051;-80
2022/09/03 10:53:04;;;;;;;2.58;1.10;;;24.00;83.90;;;;;;5114867;28;20050;-81
2022/09/03 10:55:56;;;;;;;3.75;1.10;;;24.00;82.70;;;;;;5095181;28;20089;-82
2022/09/03 10:59:00;;;;;;;4.53;1.20;;;24.20;82.90;;;;;;5077630;28;20035;-81
2022/09/03 11:01:51;;;;;;;4.40;0.90;;;24.30;82.20;;;;;;5093818;28;20048;-81
2022/09/03 11:04:45;;;;;;;1.63;1.05;;;24.40;82.30;;;;;;5094154;28;20036;-80
2022/09/03 11:07:20;;;;;;;4.07;1.20;;;24.50;82.40;;;;;;5100460;28;20039;-77
2022/09/03 11:10:17;;;;;;;4.03;1.02;;;24.60;81.50;;;;;;5109325;27;22019;-81
2022/09/03 11:13:28;;;;;;;2.58;1.08;;;24.80;81.90;;;;;;5067391;28;20044;-81
2022/09/03 11:15:58;;;;;;;9.90;1.30;;;25.00;81.40;;;;;;5098019;28;20456;-80
2022/09/03 11:18:39;;;;;;;2.33;1.00;;;25.10;80.40;;;;;;5108814;28;20031;-81
2022/09/03 11:21:10;;;;;;;4.15;1.10;;;25.20;79.60;;;;;;5111459;28;20097;-79
2022/09/03 11:23:39;;;;;;;5.55;1.27;;;25.30;78.80;;;;;;5095034;28;20413;-80
2022/09/03 11:26:12;;;;;;;1.70;1.10;;;25.40;79.20;;;;;;5085590;28;20211;-81
2022/09/03 11:29:05;;;;;;;2.13;1.00;;;25.50;79.00;;;;;;5110804;28;20062;-78
2022/09/03 11:31:38;;;;;;;2.83;1.15;;;25.70;79.30;;;;;;5096632;28;20040;-79
2022/09/03 11:34:15;;;;;;;5.87;1.17;;;25.80;77.70;;;;;;5097373;28;20032;-80
2022/09/03 11:36:41;;;;;;;2.22;0.80;;;25.90;77.30;;;;;;5102214;28;20031;-81
2022/09/03 11:39:33;;;;;;;4.57;1.05;;;25.90;76.80;;;;;;5098168;28;20077;-82
2022/09/03 11:42:23;;;;;;;3.05;1.00;;;26.10;77.00;;;;;;5108318;28;20092;-80
2022/09/03 11:44:53;;;;;;;2.35;1.20;;;26.20;76.70;;;;;;5083089;28;20100;-79
2022/09/03 11:47:18;;;;;;;3.45;0.95;;;26.30;76.60;;;;;;5103009;28;20024;-79
2022/09/03 11:50:02;;;;;;;3.13;1.20;;;26.50;76.00;;;;;;5109466;28;20446;-81
2022/09/03 11:52:31;;;;;;;2.90;1.10;;;26.50;75.30;;;;;;5111418;28;20077;-79
2022/09/03 11:54:57;;;;;;;10.95;1.08;;;26.70;75.20;;;;;;5098823;28;20070;-81
2022/09/03 11:57:30;;;;;;;9.75;1.00;;;26.70;74.20;;;;;;5089870;28;20060;-78
2022/09/03 12:00:12;;;;;;;3.42;1.00;;;26.80;73.90;;;;;;5113911;28;20428;-79
2022/09/03 12:02:45;;;;;;;2.47;0.90;;;26.90;73.90;;;;;;5098083;28;20032;-80
2022/09/03 12:05:28;;;;;;;3.97;0.98;;;27.00;73.60;;;;;;5110694;28;20036;-80
2022/09/03 12:08:31;;;;;;;2.13;0.95;;;27.10;73.80;;;;;;5096899;28;20035;-77
2022/09/03 12:11:30;;;;;;;3.17;1.00;;;27.30;73.70;;;;;;5099359;28;20105;-82
2022/09/03 12:14:19;;;;;;;2.20;0.90;;;27.40;72.90;;;;;;5101354;28;20090;-82
2022/09/03 12:17:13;;;;;;;1.48;0.90;;;27.50;72.40;;;;;;5096791;28;20060;-79
2022/09/03 12:19:54;;;;;;;4.75;0.90;;;27.60;71.80;;;;;;5102173;28;20771;-81
2022/09/03 12:22:23;;;;;;;6.32;0.90;;;27.60;71.40;;;;;;5107585;28;20042;-80
2022/09/03 12:24:49;;;;;;;4.35;0.73;;;27.50;71.00;;;;;;5088732;28;20036;-81
2022/09/03 12:27:24;;;;;;;5.20;1.00;;;27.60;71.30;;;;;;5104478;28;20090;-79
2022/09/03 12:29:59;;;;;;;3.33;0.73;;;27.70;71.80;;;;;;5093746;28;20504;-80
2022/09/03 12:32:31;;;;;;;2.47;0.80;;;27.90;71.20;;;;;;5103284;28;20438;-80
2022/09/03 12:34:57;;;;;;;2.38;0.73;;;28.00;70.60;;;;;;5083371;28;20051;-78
2022/09/03 12:37:32;;;;;;;1.45;0.80;;;28.10;68.90;;;;;;5076558;28;20148;-81
2022/09/03 12:39:57;;;;;;;2.28;0.88;;;28.10;69.80;;;;;;5094015;28;20032;-82
2022/09/03 12:42:29;;;;;;;1.27;0.80;;;28.20;70.30;;;;;;5092887;28;20089;-81
2022/09/03 12:44:55;;;;;;;2.30;0.90;;;28.40;69.90;;;;;;5110446;28;20073;-80
2022/09/03 12:47:22;;;;;;;3.28;0.90;;;28.30;69.10;;;;;;5095125;28;20069;-80
2022/09/03 12:49:50;;;;;;;3.60;1.00;;;28.40;69.50;;;;;;5110820;28;20039;-81
2022/09/03 12:52:34;;;;;;;4.03;1.08;;;28.40;69.60;;;;;;5088885;28;20047;-77
2022/09/03 12:55:03;;;;;;;;;;;28.40;69.10;;;;;;5097453;28;20035;-81
2022/09/03 12:57:34;;;;;;;3.78;0.80;;;28.40;69.00;;;;;;5085387;28;19937;-80
2022/09/03 13:00:05;;;;;;;3.25;0.88;;;28.50;68.60;;;;;;5095328;28;20041;-78
2022/09/03 13:02:45;;;;;;;3.97;1.00;;;28.60;67.90;;;;;;5095655;28;20043;-82
2022/09/03 13:05:17;;;;;;;2.60;1.00;;;28.60;68.40;;;;;;5075650;28;20577;-85
2022/09/03 13:07:52;;;;;;;5.13;0.98;;;28.70;68.30;;;;;;5112641;28;20080;-81
2022/09/03 13:10:28;;;;;;;3.03;0.90;;;28.80;68.10;;;;;;5112579;28;20089;-81
2022/09/03 13:13:00;;;;;;;4.43;0.82;;;28.90;67.60;;;;;;5094111;28;20142;-80
2022/09/03 13:15:27;;;;;;;4.78;0.93;;;28.80;67.80;;;;;;5092967;28;20432;-81
2022/09/03 13:18:12;;;;;;;4.45;1.08;;;28.90;68.00;;;;;;5086779;28;20040;-81
2022/09/03 13:20:50;;;;;;;2.72;0.80;;;28.90;67.30;;;;;;5102098;28;20454;-82